Aviation Digital Data Service (ADDS)

Output produced by METARs form (1716 UTC 20 January 2019)
found at http://www.aviationweather.gov/metar/data/
 
METAR text: ZSFZ 201700Z 05009MPS 4000 HZ BKN023 11/05 Q1027 NOSIG
Conditions at: ZSFZ (FUZHOU , CN) observed 1700 UTC 20 January 2019
Temperature: 11.0°C (52°F)
Dewpoint: 5.0°C (41°F) [RH = 66%]
Pressure (altimeter): 30.32 inches Hg (1027.0 mb)
Winds: from the NE (50 degrees) at 20 MPH (17 knots; 8.7 m/s)
Visibility: 2.49 miles (4.01 km)
Ceiling: 2300 feet AGL
Clouds: broken clouds at 2300 feet AGL
Weather: HZ  (haze)

METAR text: ZSFZ 201600Z 03007MPS 3500 BR SCT015 SCT021 10/07 Q1027 NOSIG
Conditions at: ZSFZ (FUZHOU , CN) observed 1600 UTC 20 January 2019
Temperature: 10.0°C (50°F)
Dewpoint: 7.0°C (45°F) [RH = 82%]
Pressure (altimeter): 30.32 inches Hg (1027.0 mb)
Winds: from the NNE (30 degrees) at 16 MPH (14 knots; 7.2 m/s)
Visibility: 2.17 miles (3.49 km)
Ceiling: at least 12,000 feet AGL
Clouds: scattered clouds at 1500 feet AGL
scattered clouds at 2100 feet AGL
Weather: BR  (mist)

METAR text: ZSFZ 201500Z 03008MPS 4000 BR BKN024 11/07 Q1027 NOSIG
Conditions at: ZSFZ (FUZHOU , CN) observed 1500 UTC 20 January 2019
Temperature: 11.0°C (52°F)
Dewpoint: 7.0°C (45°F) [RH = 76%]
Pressure (altimeter): 30.32 inches Hg (1027.0 mb)
Winds: from the NNE (30 degrees) at 18 MPH (16 knots; 8.2 m/s)
Visibility: 2.49 miles (4.01 km)
Ceiling: 2400 feet AGL
Clouds: broken clouds at 2400 feet AGL
Weather: BR  (mist)

METAR text: ZSFZ 201400Z 04008MPS 4000 HZ BKN020 11/06 Q1027 NOSIG
Conditions at: ZSFZ (FUZHOU , CN) observed 1400 UTC 20 January 2019
Temperature: 11.0°C (52°F)
Dewpoint: 6.0°C (43°F) [RH = 71%]
Pressure (altimeter): 30.32 inches Hg (1027.0 mb)
Winds: from the NE (40 degrees) at 18 MPH (16 knots; 8.2 m/s)
Visibility: 2.49 miles (4.01 km)
Ceiling: 2000 feet AGL
Clouds: broken clouds at 2000 feet AGL
Weather: HZ  (haze)

METAR text: ZSFZ 201300Z 03008MPS 4000 BR BKN015 11/07 Q1027 NOSIG
Conditions at: ZSFZ (FUZHOU , CN) observed 1300 UTC 20 January 2019
Temperature: 11.0°C (52°F)
Dewpoint: 7.0°C (45°F) [RH = 76%]
Pressure (altimeter): 30.32 inches Hg (1027.0 mb)
Winds: from the NNE (30 degrees) at 18 MPH (16 knots; 8.2 m/s)
Visibility: 2.49 miles (4.01 km)
Ceiling: 1500 feet AGL
Clouds: broken clouds at 1500 feet AGL
Weather: BR  (mist)

METAR text: ZSFZ 201200Z 04009MPS 4500 HZ OVC020 12/07 Q1025 NOSIG
Conditions at: ZSFZ (FUZHOU , CN) observed 1200 UTC 20 January 2019
Temperature: 12.0°C (54°F)
Dewpoint: 7.0°C (45°F) [RH = 71%]
Pressure (altimeter): 30.27 inches Hg (1025.0 mb)
Winds: from the NE (40 degrees) at 20 MPH (17 knots; 8.7 m/s)
Visibility: 2.80 miles (4.51 km)
Ceiling: 2000 feet AGL
Clouds: overcast cloud deck at 2000 feet AGL
Weather: HZ  (haze)

METAR text: ZSFZ 201100Z 05008MPS 5000 BR BKN019 12/07 Q1025 NOSIG
Conditions at: ZSFZ (FUZHOU , CN) observed 1100 UTC 20 January 2019
Temperature: 12.0°C (54°F)
Dewpoint: 7.0°C (45°F) [RH = 71%]
Pressure (altimeter): 30.27 inches Hg (1025.0 mb)
Winds: from the NE (50 degrees) at 18 MPH (16 knots; 8.2 m/s)
Visibility: 3 miles ( 5 km)
Ceiling: 1900 feet AGL
Clouds: broken clouds at 1900 feet AGL
Weather: BR  (mist)

METAR text: ZSFZ 201000Z 04007MPS 5000 BR OVC017 12/07 Q1024 NOSIG
Conditions at: ZSFZ (FUZHOU , CN) observed 1000 UTC 20 January 2019
Temperature: 12.0°C (54°F)
Dewpoint: 7.0°C (45°F) [RH = 71%]
Pressure (altimeter): 30.24 inches Hg (1024.0 mb)
Winds: from the NE (40 degrees) at 16 MPH (14 knots; 7.2 m/s)
Visibility: 3 miles ( 5 km)
Ceiling: 1700 feet AGL
Clouds: overcast cloud deck at 1700 feet AGL
Weather: BR  (mist)

METAR text: ZSFZ 200900Z 04007MPS 4500 BR BKN016 12/08 Q1024 NOSIG
Conditions at: ZSFZ (FUZHOU , CN) observed 0900 UTC 20 January 2019
Temperature: 12.0°C (54°F)
Dewpoint: 8.0°C (46°F) [RH = 76%]
Pressure (altimeter): 30.24 inches Hg (1024.0 mb)
Winds: from the NE (40 degrees) at 16 MPH (14 knots; 7.2 m/s)
Visibility: 2.80 miles (4.51 km)
Ceiling: 1600 feet AGL
Clouds: broken clouds at 1600 feet AGL
Weather: BR  (mist)

METAR text: ZSFZ 200800Z 04006MPS 5000 BR FEW015 OVC021 12/08 Q1023 NOSIG
Conditions at: ZSFZ (FUZHOU , CN) observed 0800 UTC 20 January 2019
Temperature: 12.0°C (54°F)
Dewpoint: 8.0°C (46°F) [RH = 76%]
Pressure (altimeter): 30.21 inches Hg (1023.0 mb)
Winds: from the NE (40 degrees) at 14 MPH (12 knots; 6.2 m/s)
Visibility: 3 miles ( 5 km)
Ceiling: 2100 feet AGL
Clouds: few clouds at 1500 feet AGL
overcast cloud deck at 2100 feet AGL
Weather: BR  (mist)

METAR text: ZSFZ 200700Z 04007MPS 5000 BR BKN011 12/08 Q1023 NOSIG
Conditions at: ZSFZ (FUZHOU , CN) observed 0700 UTC 20 January 2019
Temperature: 12.0°C (54°F)
Dewpoint: 8.0°C (46°F) [RH = 76%]
Pressure (altimeter): 30.21 inches Hg (1023.0 mb)
Winds: from the NE (40 degrees) at 16 MPH (14 knots; 7.2 m/s)
Visibility: 3 miles ( 5 km)
Ceiling: 1100 feet AGL
Clouds: broken clouds at 1100 feet AGL
Weather: BR  (mist)

METAR text: ZSFZ 200600Z 04008MPS 5000 BR BKN011 OVC019 12/09 Q1023 BECMG TL0630 BKN009
Conditions at: ZSFZ (FUZHOU , CN) observed 0600 UTC 20 January 2019
Temperature: 12.0°C (54°F)
Dewpoint: 9.0°C (48°F) [RH = 82%]
Pressure (altimeter): 30.21 inches Hg (1023.0 mb)
Winds: from the NE (40 degrees) at 18 MPH (16 knots; 8.2 m/s)
Visibility: 3 miles ( 5 km)
Ceiling: 1100 feet AGL
Clouds: broken clouds at 1100 feet AGL
overcast cloud deck at 1900 feet AGL
Weather: BR  (mist)

METAR text: ZSFZ 200500Z 03008MPS 5000 BR FEW012 BKN017 13/10 Q1023 NOSIG
Conditions at: ZSFZ (FUZHOU , CN) observed 0500 UTC 20 January 2019
Temperature: 13.0°C (55°F)
Dewpoint: 10.0°C (50°F) [RH = 82%]
Pressure (altimeter): 30.21 inches Hg (1023.0 mb)
Winds: from the NNE (30 degrees) at 18 MPH (16 knots; 8.2 m/s)
Visibility: 3 miles ( 5 km)
Ceiling: 1700 feet AGL
Clouds: few clouds at 1200 feet AGL
broken clouds at 1700 feet AGL
Weather: BR  (mist)

METAR text: ZSFZ 200400Z 03008MPS 5000 BR BKN011 13/10 Q1024 NOSIG
Conditions at: ZSFZ (FUZHOU , CN) observed 0400 UTC 20 January 2019
Temperature: 13.0°C (55°F)
Dewpoint: 10.0°C (50°F) [RH = 82%]
Pressure (altimeter): 30.24 inches Hg (1024.0 mb)
Winds: from the NNE (30 degrees) at 18 MPH (16 knots; 8.2 m/s)
Visibility: 3 miles ( 5 km)
Ceiling: 1100 feet AGL
Clouds: broken clouds at 1100 feet AGL
Weather: BR  (mist)

METAR text: ZSFZ 200300Z 03007MPS 4000 BR BKN010 13/10 Q1024 BECMG TL0400 BKN009
Conditions at: ZSFZ (FUZHOU , CN) observed 0300 UTC 20 January 2019
Temperature: 13.0°C (55°F)
Dewpoint: 10.0°C (50°F) [RH = 82%]
Pressure (altimeter): 30.24 inches Hg (1024.0 mb)
Winds: from the NNE (30 degrees) at 16 MPH (14 knots; 7.2 m/s)
Visibility: 2.49 miles (4.01 km)
Ceiling: 1000 feet AGL
Clouds: broken clouds at 1000 feet AGL
Weather: BR  (mist)

METAR text: ZSFZ 200200Z 03009MPS 3500 BR BKN010 13/10 Q1024 BECMG TL0300 BKN009
Conditions at: ZSFZ (FUZHOU , CN) observed 0200 UTC 20 January 2019
Temperature: 13.0°C (55°F)
Dewpoint: 10.0°C (50°F) [RH = 82%]
Pressure (altimeter): 30.24 inches Hg (1024.0 mb)
Winds: from the NNE (30 degrees) at 20 MPH (17 knots; 8.7 m/s)
Visibility: 2.17 miles (3.49 km)
Ceiling: 1000 feet AGL
Clouds: broken clouds at 1000 feet AGL
Weather: BR  (mist)

METAR text: ZSFZ 200100Z 03008MPS 3500 BR BKN009 13/11 Q1024 BECMG TL0200 BKN011
Conditions at: ZSFZ (FUZHOU , CN) observed 0100 UTC 20 January 2019
Temperature: 13.0°C (55°F)
Dewpoint: 11.0°C (52°F) [RH = 88%]
Pressure (altimeter): 30.24 inches Hg (1024.0 mb)
Winds: from the NNE (30 degrees) at 18 MPH (16 knots; 8.2 m/s)
Visibility: 2.17 miles (3.49 km)
Ceiling: 900 feet AGL
Clouds: broken clouds at 900 feet AGL
Weather: BR  (mist)

METAR text: ZSFZ 200000Z 04007MPS 3000 BR BKN006 13/12 Q1022 BECMG TL0030 2900 BR
Conditions at: ZSFZ (FUZHOU , CN) observed 0000 UTC 20 January 2019
Temperature: 13.0°C (55°F)
Dewpoint: 12.0°C (54°F) [RH = 94%]
Pressure (altimeter): 30.18 inches Hg (1022.0 mb)
Winds: from the NE (40 degrees) at 16 MPH (14 knots; 7.2 m/s)
Visibility: 1.86 miles (2.99 km)
Ceiling: 600 feet AGL
Clouds: broken clouds at 600 feet AGL
Weather: BR  (mist)

METAR text: ZSFZ 192300Z 05004MPS 5000 BR NSC 13/12 Q1021 NOSIG
Conditions at: ZSFZ (FUZHOU , CN) observed 2300 UTC 19 January 2019
Temperature: 13.0°C (55°F)
Dewpoint: 12.0°C (54°F) [RH = 94%]
Pressure (altimeter): 30.15 inches Hg (1021.0 mb)
Winds: from the NE (50 degrees) at 9 MPH (8 knots; 4.1 m/s)
Visibility: 3 miles ( 5 km)
Ceiling: at least 12,000 feet AGL
Clouds: sky clear below 12,000 feet AGL
Weather: BR  (mist)

METAR text: ZSFZ 192200Z 05001MPS 5000 BR NSC 12/11 Q1020 NOSIG
Conditions at: ZSFZ (FUZHOU , CN) observed 2200 UTC 19 January 2019
Temperature: 12.0°C (54°F)
Dewpoint: 11.0°C (52°F) [RH = 94%]
Pressure (altimeter): 30.12 inches Hg (1020.0 mb)
Winds: from the NE (50 degrees) at 2 MPH (2 knots; 1.0 m/s)
Visibility: 3 miles ( 5 km)
Ceiling: at least 12,000 feet AGL
Clouds: sky clear below 12,000 feet AGL
Weather: BR  (mist)

METAR text: ZSFZ 192100Z 03001MPS 6000 NSC 12/10 Q1020 NOSIG
Conditions at: ZSFZ (FUZHOU , CN) observed 2100 UTC 19 January 2019
Temperature: 12.0°C (54°F)
Dewpoint: 10.0°C (50°F) [RH = 88%]
Pressure (altimeter): 30.12 inches Hg (1020.0 mb)
Winds: from the NNE (30 degrees) at 2 MPH (2 knots; 1.0 m/s)
Visibility: 4 miles ( 6 km)
Ceiling: at least 12,000 feet AGL
Clouds: sky clear below 12,000 feet AGL
Weather: no significant weather observed at this time

METAR text: ZSFZ 192000Z VRB01MPS 7000 NSC 12/10 Q1019 NOSIG
Conditions at: ZSFZ (FUZHOU , CN) observed 2000 UTC 19 January 2019
Temperature: 12.0°C (54°F)
Dewpoint: 10.0°C (50°F) [RH = 88%]
Pressure (altimeter): 30.09 inches Hg (1019.0 mb)
Winds: variable direction winds at 2 MPH (2 knots; 1.0 m/s)
Visibility: 4 miles ( 7 km)
Ceiling: at least 12,000 feet AGL
Clouds: sky clear below 12,000 feet AGL
Weather: no significant weather observed at this time

METAR text: ZSFZ 191900Z VRB01MPS 7000 NSC 12/11 Q1019 NOSIG
Conditions at: ZSFZ (FUZHOU , CN) observed 1900 UTC 19 January 2019
Temperature: 12.0°C (54°F)
Dewpoint: 11.0°C (52°F) [RH = 94%]
Pressure (altimeter): 30.09 inches Hg (1019.0 mb)
Winds: variable direction winds at 2 MPH (2 knots; 1.0 m/s)
Visibility: 4 miles ( 7 km)
Ceiling: at least 12,000 feet AGL
Clouds: sky clear below 12,000 feet AGL
Weather: no significant weather observed at this time

METAR text: ZSFZ 191800Z VRB01MPS 8000 NSC 12/10 Q1019 NOSIG
Conditions at: ZSFZ (FUZHOU , CN) observed 1800 UTC 19 January 2019
Temperature: 12.0°C (54°F)
Dewpoint: 10.0°C (50°F) [RH = 88%]
Pressure (altimeter): 30.09 inches Hg (1019.0 mb)
Winds: variable direction winds at 2 MPH (2 knots; 1.0 m/s)
Visibility: 5 miles ( 8 km)
Ceiling: at least 12,000 feet AGL
Clouds: sky clear below 12,000 feet AGL
Weather: no significant weather observed at this time

METAR text: ZSFZ 191700Z 00000MPS 8000 NSC 13/10 Q1019 NOSIG
Conditions at: ZSFZ (FUZHOU , CN) observed 1700 UTC 19 January 2019
Temperature: 13.0°C (55°F)
Dewpoint: 10.0°C (50°F) [RH = 82%]
Pressure (altimeter): 30.09 inches Hg (1019.0 mb)
Winds: calm
Visibility: 5 miles ( 8 km)
Ceiling: at least 12,000 feet AGL
Clouds: sky clear below 12,000 feet AGL
Weather: no significant weather observed at this time

METAR text: ZSFZ 191600Z 29001MPS 8000 NSC 12/10 Q1020 NOSIG
Conditions at: ZSFZ (FUZHOU , CN) observed 1600 UTC 19 January 2019
Temperature: 12.0°C (54°F)
Dewpoint: 10.0°C (50°F) [RH = 88%]
Pressure (altimeter): 30.12 inches Hg (1020.0 mb)
Winds: from the WNW (290 degrees) at 2 MPH (2 knots; 1.0 m/s)
Visibility: 5 miles ( 8 km)
Ceiling: at least 12,000 feet AGL
Clouds: sky clear below 12,000 feet AGL
Weather: no significant weather observed at this time

METAR text: ZSFZ 191500Z 30001MPS 8000 NSC 14/10 Q1020 NOSIG
Conditions at: ZSFZ (FUZHOU , CN) observed 1500 UTC 19 January 2019
Temperature: 14.0°C (57°F)
Dewpoint: 10.0°C (50°F) [RH = 77%]
Pressure (altimeter): 30.12 inches Hg (1020.0 mb)
Winds: from the WNW (300 degrees) at 2 MPH (2 knots; 1.0 m/s)
Visibility: 5 miles ( 8 km)
Ceiling: at least 12,000 feet AGL
Clouds: sky clear below 12,000 feet AGL
Weather: no significant weather observed at this time

METAR text: ZSFZ 191400Z VRB01MPS CAVOK 12/10 Q1020 NOSIG
Conditions at: ZSFZ (FUZHOU , CN) observed 1400 UTC 19 January 2019
Temperature: 12.0°C (54°F)
Dewpoint: 10.0°C (50°F) [RH = 88%]
Pressure (altimeter): 30.12 inches Hg (1020.0 mb)
Winds: variable direction winds at 2 MPH (2 knots; 1.0 m/s)
Visibility: 6 or more miles (10+ km)
Ceiling: ceiling and visibility are OK
Clouds: unknown
Weather: no significant weather observed at this time

METAR text: ZSFZ 191300Z 34001MPS CAVOK 12/10 Q1020 NOSIG
Conditions at: ZSFZ (FUZHOU , CN) observed 1300 UTC 19 January 2019
Temperature: 12.0°C (54°F)
Dewpoint: 10.0°C (50°F) [RH = 88%]
Pressure (altimeter): 30.12 inches Hg (1020.0 mb)
Winds: from the NNW (340 degrees) at 2 MPH (2 knots; 1.0 m/s)
Visibility: 6 or more miles (10+ km)
Ceiling: ceiling and visibility are OK
Clouds: unknown
Weather: no significant weather observed at this time

METAR text: ZSFZ 191200Z VRB01MPS CAVOK 13/10 Q1020 NOSIG
Conditions at: ZSFZ (FUZHOU , CN) observed 1200 UTC 19 January 2019
Temperature: 13.0°C (55°F)
Dewpoint: 10.0°C (50°F) [RH = 82%]
Pressure (altimeter): 30.12 inches Hg (1020.0 mb)
Winds: variable direction winds at 2 MPH (2 knots; 1.0 m/s)
Visibility: 6 or more miles (10+ km)
Ceiling: ceiling and visibility are OK
Clouds: unknown
Weather: no significant weather observed at this time

METAR text: ZSFZ 191100Z 19002MPS 150V230 CAVOK 14/10 Q1020 NOSIG
Conditions at: ZSFZ (FUZHOU , CN) observed 1100 UTC 19 January 2019
Temperature: 14.0°C (57°F)
Dewpoint: 10.0°C (50°F) [RH = 77%]
Pressure (altimeter): 30.12 inches Hg (1020.0 mb)
Winds: from the S (190 degrees) at 5 MPH (4 knots; 2.1 m/s)
Visibility: 6 or more miles (10+ km)
Ceiling: ceiling and visibility are OK
Clouds: unknown
Weather: no significant weather observed at this time

METAR text: ZSFZ 191000Z 18002MPS 110V220 CAVOK 15/10 Q1019 NOSIG
Conditions at: ZSFZ (FUZHOU , CN) observed 1000 UTC 19 January 2019
Temperature: 15.0°C (59°F)
Dewpoint: 10.0°C (50°F) [RH = 72%]
Pressure (altimeter): 30.09 inches Hg (1019.0 mb)
Winds: from the S (180 degrees) at 5 MPH (4 knots; 2.1 m/s)
Visibility: 6 or more miles (10+ km)
Ceiling: ceiling and visibility are OK
Clouds: unknown
Weather: no significant weather observed at this time

METAR text: ZSFZ 190900Z 10002MPS 060V130 CAVOK 16/09 Q1019 NOSIG
Conditions at: ZSFZ (FUZHOU , CN) observed 0900 UTC 19 January 2019
Temperature: 16.0°C (61°F)
Dewpoint: 9.0°C (48°F) [RH = 63%]
Pressure (altimeter): 30.09 inches Hg (1019.0 mb)
Winds: from the E (100 degrees) at 5 MPH (4 knots; 2.1 m/s)
Visibility: 6 or more miles (10+ km)
Ceiling: ceiling and visibility are OK
Clouds: unknown
Weather: no significant weather observed at this time

METAR text: ZSFZ 190800Z 09003MPS CAVOK 19/09 Q1019 NOSIG
Conditions at: ZSFZ (FUZHOU , CN) observed 0800 UTC 19 January 2019
Temperature: 19.0°C (66°F)
Dewpoint: 9.0°C (48°F) [RH = 52%]
Pressure (altimeter): 30.09 inches Hg (1019.0 mb)
Winds: from the E (90 degrees) at 7 MPH (6 knots; 3.1 m/s)
Visibility: 6 or more miles (10+ km)
Ceiling: ceiling and visibility are OK
Clouds: unknown
Weather: no significant weather observed at this time

METAR text: ZSFZ 190700Z 08003MPS 050V110 CAVOK 19/09 Q1019 NOSIG
Conditions at: ZSFZ (FUZHOU , CN) observed 0700 UTC 19 January 2019
Temperature: 19.0°C (66°F)
Dewpoint: 9.0°C (48°F) [RH = 52%]
Pressure (altimeter): 30.09 inches Hg (1019.0 mb)
Winds: from the E (80 degrees) at 7 MPH (6 knots; 3.1 m/s)
Visibility: 6 or more miles (10+ km)
Ceiling: ceiling and visibility are OK
Clouds: unknown
Weather: no significant weather observed at this time

METAR text: ZSFZ 190600Z 09004MPS 060V120 CAVOK 20/09 Q1019 NOSIG
Conditions at: ZSFZ (FUZHOU , CN) observed 0600 UTC 19 January 2019
Temperature: 20.0°C (68°F)
Dewpoint: 9.0°C (48°F) [RH = 49%]
Pressure (altimeter): 30.09 inches Hg (1019.0 mb)
Winds: from the E (90 degrees) at 9 MPH (8 knots; 4.1 m/s)
Visibility: 6 or more miles (10+ km)
Ceiling: ceiling and visibility are OK
Clouds: unknown
Weather: no significant weather observed at this time

Forecast for: ZSFZ (FUZHOU , CN)
Text: TAF ZSFZ 201508Z 2018/2118 03007MPS 4000 BR BKN020 TX15/2106Z TN10/2021Z
Forecast period: 1800 UTC 20 January 2019 to 1800 UTC 21 January 2019
Forecast type: FROM: standard forecast or significant change
Winds: from the NNE (30 degrees) at 16 MPH (14 knots; 7.2 m/s)
Visibility: 2.49 miles (4.01 km)
Ceiling: 2000 feet AGL
Clouds: broken clouds at 2000 feet AGL
Weather: BR  (mist)